Latest Coastal Weather Observations for Geelong Racecourse

IDV60701

Issued at 10:21 am EST Sunday 28 August 2016 (issued every 10 minutes, with the page automatically refreshed every 10 minutes)

About coastal observations | Map of coastal stations | Coastal observations for VIC | Marine services | Other Formats
Station Details ID: 087184 Name: GEELONG RACECOURSE Lat: -38.17 Lon: 144.38 Height: 12.9 m
Data from the previous 72 hours. | See also: Recent months at Geelong Racecourse
Date/Time
EST
Temp
°C
Wind Pressure Rain since
9am
mm
Weather Cloud Vis
km
Sea
Height
m
Swell
Dir  Spd
kts
Gust
kts
hPa Trend Height
m
Period
s
Dir
28/10:00am 14.7 NNW 2 3 1020.1 - 0.0 - - - - - - -
28/09:30am 12.7 NW 2 3 1020.0 - 0.0 - - - - - - -
28/09:00am 11.1 S 1 1 1020.0 - 0.0 - - - - - - -
28/08:30am 10.7 SSW 2 3 1020.0 - 0.0 - - - - - - -
28/08:00am 10.1 NW 2 4 1019.6 - 0.0 - - - - - - -
28/07:30am 9.9 WNW 3 4 1019.5 - 0.0 - - - - - - -
28/07:00am 10.4 WNW 3 5 1019.4 - 0.0 - - - - - - -
28/06:30am 10.6 NW 3 5 1019.0 - 0.0 - - - - - - -
28/06:00am 10.5 NW 3 5 1018.6 - 0.0 - - - - - - -
28/05:30am 10.2 SW 3 3 1018.3 - 0.0 - - - - - - -
28/05:00am 11.0 NW 5 7 1018.0 - 0.0 - - - - - - -
28/04:30am 10.9 NW 5 8 1017.8 - 0.0 - - - - - - -
28/04:00am 11.1 WNW 8 12 1017.4 - 0.0 - - - - - - -
28/03:30am 11.2 NW 11 15 1016.9 - 0.0 - - - - - - -
28/03:00am 11.7 NW 12 17 1016.9 - 0.0 - - - - - - -
28/02:30am 11.7 NW 11 16 1017.0 - 0.0 - - - - - - -
28/02:00am 11.7 NW 11 16 1017.1 - 0.0 - - - - - - -
28/01:30am 11.8 NNW 13 20 1017.3 - 0.0 - - - - - - -
28/01:00am 11.9 NNW 14 20 1017.6 - 0.0 - - - - - - -
28/12:30am 12.3 NNW 14 21 1017.5 - 0.0 - - - - - - -
28/12:00am 12.3 NNW 14 21 1017.4 - 0.0 - - - - - - -
 
Date/Time
EST
Temp
°C
Wind Pressure Rain since
9am
mm
Weather Cloud Vis
km
Sea
Height
m
Swell
Dir  Spd
kts
Gust
kts
hPa Trend Height
m
Period
s
Dir
27/11:30pm 12.3 NNW 14 20 1017.6 - 0.0 - - - - - - -
27/11:00pm 12.4 NNW 14 23 1017.6 - 0.0 - - - - - - -
27/10:30pm 12.3 NNW 15 22 1017.5 - 0.0 - - - - - - -
27/10:00pm 12.1 NNW 12 22 1018.0 - 0.0 - - - - - - -
27/09:30pm 11.8 NW 11 17 1018.2 - 0.0 - - - - - - -
27/09:00pm 12.0 NNW 11 16 1018.4 - 0.0 - - - - - - -
27/08:30pm 11.8 NNW 9 14 1018.5 - 0.0 - - - - - - -
27/08:00pm 11.7 NNW 7 11 1018.4 - 0.0 - - - - - - -
27/07:30pm 12.0 NNW 9 15 1018.2 - 0.0 - - - - - - -
27/07:00pm 12.4 NNW 7 10 1018.4 - 0.0 - - - - - - -
27/06:30pm 12.3 NNW 6 11 1018.4 - 0.0 - - - - - - -
27/06:00pm 13.0 NNW 8 10 1018.3 - 0.0 - - - - - - -
27/05:30pm 13.2 NNW 9 16 1017.9 - 0.0 - - - - - - -
27/05:00pm 13.4 NW 8 12 1017.6 - 0.0 - - - - - - -
27/04:30pm 13.8 NW 10 15 1017.6 - 0.0 - - - - - - -
27/04:00pm 13.8 NNW 10 16 1017.6 - 0.0 - - - - - - -
27/03:30pm 13.6 NW 12 20 1018.1 - 0.0 - - - - - - -
27/03:00pm 13.8 NNW 10 17 1018.1 - 0.0 - - - - - - -
27/02:30pm 13.5 WNW 9 15 1018.3 - 0.0 - - - - - - -
27/02:00pm 13.6 NW 9 14 1018.6 - 0.0 - - - - - - -
27/01:30pm 13.7 NW 9 13 1019.0 - 0.0 - - - - - - -
27/01:00pm 12.6 NW 11 16 1019.6 - 0.0 - - - - - - -
27/12:30pm 13.1 NW 11 17 1019.9 - 0.0 - - - - - - -
27/12:00pm 12.8 WNW 11 18 1020.6 - 0.0 - - - - - - -
27/11:30am 12.2 NW 13 18 1021.1 - 0.0 - - - - - - -
27/11:00am 12.2 NW 15 23 1021.3 - 0.0 - - - - - - -
27/10:30am 12.3 NW 13 21 1021.2 - 0.0 - - - - - - -
27/10:00am 11.2 NNW 11 18 1021.4 - 0.0 - - - - - - -
27/09:30am 11.8 NW 11 19 1021.2 - 0.0 - - - - - - -
27/09:00am 10.8 NW 10 18 1021.1 - 0.2 - - - - - - -
27/08:30am 9.9 NNW 7 12 1021.3 - 0.2 - - - - - - -
27/08:00am 8.3 NW 7 11 1021.4 - 0.2 - - - - - - -
27/07:30am 6.8 NW 5 7 1021.5 - 0.2 - - - - - - -
27/07:00am 6.2 NW 6 8 1021.1 - 0.2 - - - - - - -
27/06:30am 6.0 NW 5 7 1021.2 - 0.2 - - - - - - -
27/06:00am 5.3 WNW 4 6 1021.2 - 0.0 - - - - - - -
27/05:30am 6.0 NW 4 5 1020.7 - 0.0 - - - - - - -
27/05:00am 6.1 NNW 4 5 1020.5 - 0.0 - - - - - - -
27/04:30am 6.4 NNW 6 9 1020.2 - 0.0 - - - - - - -
27/04:00am 5.6 NNW 5 6 1020.4 - 0.0 - - - - - - -
27/03:30am 6.0 NNW 5 6 1020.5 - 0.0 - - - - - - -
27/03:00am 6.3 NNW 4 5 1020.5 - 0.0 - - - - - - -
27/02:30am 6.5 NNW 4 6 1020.6 - 0.0 - - - - - - -
27/02:00am 6.8 NNW 5 6 1020.9 - 0.0 - - - - - - -
27/01:30am 6.9 NNW 5 6 1021.1 - 0.0 - - - - - - -
27/01:00am 7.0 NW 5 6 1021.3 - 0.0 - - - - - - -
27/12:30am 7.4 NW 6 8 1021.6 - 0.0 - - - - - - -
27/12:00am 7.5 NW 5 8 1021.7 - 0.0 - - - - - - -
 
Date/Time
EST
Temp
°C
Wind Pressure Rain since
9am
mm
Weather Cloud Vis
km
Sea
Height
m
Swell
Dir  Spd
kts
Gust
kts
hPa Trend Height
m
Period
s
Dir
26/11:30pm 7.4 NNW 5 7 1021.7 - 0.0 - - - - - - -
26/11:00pm 7.7 NW 5 7 1021.8 - 0.0 - - - - - - -
26/10:30pm 8.2 NW 4 7 1021.8 - 0.0 - - - - - - -
26/10:00pm 8.4 NW 4 6 1021.7 - 0.0 - - - - - - -
26/09:30pm 8.7 NW 5 7 1021.6 - 0.0 - - - - - - -
26/09:00pm 9.1 NW 5 6 1021.5 - 0.0 - - - - - - -
26/08:30pm 9.9 NW 6 9 1021.5 - 0.0 - - - - - - -
26/08:00pm 10.2 WNW 5 9 1021.5 - 0.0 - - - - - - -
26/07:30pm 10.4 NW 5 8 1021.4 - 0.0 - - - - - - -
26/07:00pm 10.5 NW 4 6 1021.4 - 0.0 - - - - - - -
26/06:30pm 10.6 NW 4 7 1021.1 - 0.0 - - - - - - -
26/06:00pm 10.5 WNW 4 6 1020.7 - 0.0 - - - - - - -
26/05:30pm 11.7 WNW 6 9 1020.6 - 0.0 - - - - - - -
26/05:00pm 12.1 WNW 6 11 1020.4 - 0.0 - - - - - - -
26/04:30pm 12.3 WNW 7 11 1020.2 - 0.0 - - - - - - -
26/04:00pm 12.3 WNW 7 11 1020.1 - 0.0 - - - - - - -
26/03:30pm 12.3 WNW 9 13 1020.2 - 0.0 - - - - - - -
26/03:00pm 12.5 WNW 10 16 1020.2 - 0.0 - - - - - - -
26/02:30pm 12.7 WNW 8 11 1020.3 - 0.0 - - - - - - -
26/02:00pm 12.3 WNW 9 14 1020.4 - 0.0 - - - - - - -
26/01:30pm 13.3 WNW 9 13 1020.5 - 0.0 - - - - - - -
26/01:00pm 12.3 W 9 15 1020.9 - 0.0 - - - - - - -
26/12:30pm 12.2 W 11 16 1021.4 - 0.0 - - - - - - -
26/12:00pm 12.4 WNW 9 15 1021.6 - 0.0 - - - - - - -
26/11:30am 11.3 W 8 12 1021.9 - 0.0 - - - - - - -
26/11:00am 11.1 W 9 14 1022.1 - 0.0 - - - - - - -
26/10:30am 11.4 WNW 8 13 1022.0 - 0.0 - - - - - - -
26/10:00am 9.9 WNW 8 13 1022.0 - 0.0 - - - - - - -
26/09:30am 9.2 WNW 9 13 1022.0 - 0.0 - - - - - - -
26/09:00am 8.4 WNW 9 14 1021.9 - 0.0 - - - - - - -
26/08:30am 8.6 WNW 6 9 1021.9 - 0.0 - - - - - - -
26/08:00am 6.8 WNW 7 12 1021.7 - 0.0 - - - - - - -
26/07:30am 6.9 WNW 9 14 1021.4 - 0.0 - - - - - - -
26/07:00am 6.6 NW 6 10 1021.2 - 0.0 - - - - - - -
26/06:30am 6.4 WNW 4 6 1020.8 - 0.0 - - - - - - -
26/06:00am 5.8 WNW 3 5 1020.7 - 0.0 - - - - - - -
26/05:30am 4.9 WNW 3 5 1020.6 - 0.0 - - - - - - -
26/05:00am 6.0 WNW 4 5 1020.1 - 0.0 - - - - - - -
26/04:30am 6.1 NW 5 6 1019.7 - 0.0 - - - - - - -
26/04:00am 5.5 WNW 3 5 1019.7 - 0.0 - - - - - - -
26/03:30am 5.3 NW 3 4 1019.4 - 0.0 - - - - - - -
26/03:00am 5.0 NW 4 5 1019.8 - 0.0 - - - - - - -
26/02:30am 5.3 WNW 3 4 1019.8 - 0.0 - - - - - - -
26/02:00am 4.8 WNW 4 5 1019.8 - 0.0 - - - - - - -
26/01:30am 4.9 NW 5 7 1020.0 - 0.0 - - - - - - -
26/01:00am 5.6 WSW 2 3 1019.7 - 0.0 - - - - - - -
26/12:30am 6.1 WNW 4 5 1019.8 - 0.0 - - - - - - -
26/12:00am 5.8 WNW 3 4 1019.7 - 0.0 - - - - - - -
 
Date/Time
EST
Temp
°C
Wind Pressure Rain since
9am
mm
Weather Cloud Vis
km
Sea
Height
m
Swell
Dir  Spd
kts
Gust
kts
hPa Trend Height
m
Period
s
Dir
25/11:30pm 6.0 WNW 4 7 1019.8 - 0.0 - - - - - - -
25/11:00pm 6.6 NW 5 7 1019.6 - 0.0 - - - - - - -
25/10:30pm 7.3 WSW 6 7 1019.4 - 0.0 - - - - - - -
25/10:00pm 7.5 WSW 5 8 1019.4 - 0.0 - - - - - - -
25/09:30pm 8.3 W 5 7 1019.3 - 0.0 - - - - - - -
25/09:00pm 8.2 W 5 7 1019.2 - 0.0 - - - - - - -
25/08:30pm 8.3 W 4 7 1019.1 - 0.0 - - - - - - -
25/08:00pm 8.5 W 5 8 1018.9 - 0.0 - - - - - - -
25/07:30pm 8.7 WSW 5 7 1018.5 - 0.0 - - - - - - -
25/07:00pm 9.4 SW 6 8 1018.2 - 0.0 - - - - - - -
25/06:30pm 9.8 SW 7 11 1017.7 - 0.0 - - - - - - -
25/06:00pm 10.1 SW 10 13 1017.4 - 0.0 - - - - - - -
25/05:30pm 10.7 SSW 8 12 1017.0 - 0.0 - - - - - - -
25/05:00pm 11.1 SSW 13 18 1016.7 - 0.0 - - - - - - -
25/04:30pm 12.0 SSW 13 19 1016.4 - 0.0 - - - - - - -
25/04:00pm 11.7 SSW 12 16 1016.3 - 0.0 - - - - - - -
25/03:30pm 13.0 SSW 12 15 1016.0 - 0.0 - - - - - - -
25/03:00pm 11.9 SSW 11 16 1016.0 - 0.0 - - - - - - -
25/02:30pm 12.4 SSW 13 17 1015.7 - 0.0 - - - - - - -
25/02:00pm 12.9 SSW 11 16 1015.4 - 0.0 - - - - - - -
25/01:30pm 11.9 SSW 10 13 1015.5 - 0.0 - - - - - - -
25/01:00pm 10.6 SW 13 19 1015.8 - 0.0 - - - - - - -
25/12:30pm 12.1 SSW 11 16 1015.7 - 0.0 - - - - - - -
25/12:00pm 12.0 WSW 7 11 1015.7 - 0.0 - - - - - - -
25/11:30am 11.1 WSW 7 12 1015.9 - 0.0 - - - - - - -
25/11:00am 11.8 W 8 12 1015.7 - 0.0 - - - - - - -
25/10:30am 10.9 W 8 12 1015.6 - 0.0 - - - - - - -

Other Formats:

Comma delimited format used in spreadsheet applications
http://www.bom.gov.au/fwo/IDV60701/IDV60701.94857.axf

JavaScript Object Notation format (JSON) in row-major order
http://www.bom.gov.au/fwo/IDV60701/IDV60701.94857.json